createdAt,value
2023-01-21T00:03:24.957Z,18.20
2023-01-21T00:05:52.119Z,19.37
2023-01-21T00:08:19.076Z,17.73
2023-01-21T00:10:46.045Z,18.45
2023-01-21T00:13:12.968Z,16.40
2023-01-21T00:15:39.920Z,19.60
2023-01-21T00:18:07.309Z,18.33
2023-01-21T00:20:34.223Z,19.27
2023-01-21T00:25:28.247Z,18.77
2023-01-21T00:27:55.478Z,22.05
2023-01-21T00:30:22.388Z,19.37
2023-01-21T00:35:16.258Z,19.83
2023-01-21T00:37:43.141Z,23.17
2023-01-21T00:42:37.062Z,25.47
2023-01-21T00:45:04.258Z,23.33
2023-01-21T00:47:31.159Z,22.70
2023-01-21T00:52:24.747Z,20.77
2023-01-21T00:57:18.293Z,21.40
2023-01-21T00:59:45.501Z,22.87
2023-01-21T01:04:39.195Z,20.45
2023-01-21T01:07:06.471Z,27.23
2023-01-21T01:09:33.375Z,26.17
2023-01-21T01:14:27.028Z,24.77
2023-01-21T01:16:53.918Z,17.45
2023-01-21T01:21:47.648Z,22.75
2023-01-21T01:24:14.554Z,22.17
2023-01-21T01:29:12.110Z,23.05
2023-01-21T01:31:39.049Z,20.05
2023-01-21T01:34:06.201Z,18.58
2023-01-21T01:38:59.843Z,21.58
2023-01-21T01:41:30.145Z,18.30
2023-01-21T01:44:00.999Z,18.75
2023-01-21T01:46:30.424Z,15.48
2023-01-21T01:49:14.147Z,21.67
2023-01-21T01:51:50.179Z,19.08
2023-01-21T01:54:24.015Z,23.62
2023-01-21T01:56:53.385Z,21.80
2023-01-21T01:59:20.501Z,22.23
2023-01-21T02:01:47.397Z,18.20
2023-01-21T02:06:43.201Z,18.95
2023-01-21T02:09:10.090Z,20.42
2023-01-21T02:14:04.189Z,19.27
2023-01-21T02:16:42.025Z,20.83
2023-01-21T02:19:30.560Z,18.33
2023-01-21T02:22:00.441Z,18.35
2023-01-21T02:25:09.262Z,18.50
2023-01-21T02:27:41.909Z,18.48
2023-01-21T02:30:32.001Z,14.75
2023-01-21T02:33:17.630Z,18.52
2023-01-21T02:35:51.813Z,22.02
2023-01-21T02:38:27.850Z,20.88
2023-01-21T02:41:06.635Z,21.52
2023-01-21T02:43:43.845Z,20.58
2023-01-21T02:46:19.150Z,20.27
2023-01-21T02:48:55.763Z,17.50
2023-01-21T02:51:23.665Z,15.65
2023-01-21T02:53:50.585Z,19.17
2023-01-21T02:56:23.571Z,21.00
2023-01-21T02:58:57.580Z,18.42
2023-01-21T03:01:51.408Z,20.15
2023-01-21T03:04:44.111Z,21.60
2023-01-21T03:07:26.835Z,20.55
2023-01-21T03:09:57.408Z,17.52
2023-01-21T03:12:41.126Z,15.73
2023-01-21T03:15:35.181Z,19.17
2023-01-21T03:18:12.394Z,16.92
2023-01-21T03:20:44.206Z,19.25
2023-01-21T03:23:14.784Z,16.12
2023-01-21T03:25:41.900Z,18.25
2023-01-21T03:28:13.084Z,17.80
2023-01-21T03:30:42.723Z,19.50
2023-01-21T03:33:10.961Z,14.70
2023-01-21T03:35:43.588Z,19.27
2023-01-21T03:38:29.739Z,17.60
2023-01-21T03:41:00.817Z,17.23
2023-01-21T03:43:27.964Z,15.20
2023-01-21T03:46:16.927Z,15.68
2023-01-21T03:48:50.320Z,18.05
2023-01-21T03:51:20.319Z,17.60
2023-01-21T03:53:52.575Z,18.02
2023-01-21T03:56:19.437Z,17.52
2023-01-21T03:58:46.283Z,16.30
2023-01-21T04:01:13.212Z,13.82
2023-01-21T04:03:41.058Z,16.02
2023-01-21T04:06:09.029Z,19.02
2023-01-21T04:08:35.869Z,15.88
2023-01-21T04:13:29.520Z,14.73
2023-01-21T04:15:56.363Z,15.90
2023-01-21T04:20:50.014Z,14.87
2023-01-21T04:23:16.929Z,17.98
2023-01-21T04:25:43.911Z,17.40
2023-01-21T04:28:10.814Z,13.15
2023-01-21T04:30:37.655Z,17.15
2023-01-21T04:33:04.522Z,17.23
2023-01-21T04:35:31.370Z,17.75
2023-01-21T04:40:24.914Z,14.48
2023-01-21T04:42:51.800Z,15.00
2023-01-21T04:45:18.629Z,18.00
2023-01-21T04:50:13.131Z,14.32
2023-01-21T04:52:40.573Z,17.08
2023-01-21T04:55:09.070Z,14.73
2023-01-21T04:57:36.785Z,15.65
2023-01-21T05:00:05.664Z,16.48
2023-01-21T05:02:33.221Z,13.05
2023-01-21T05:05:00.170Z,16.65
2023-01-21T05:09:54.423Z,18.23
2023-01-21T05:12:21.291Z,14.63
2023-01-21T05:17:14.855Z,18.58
2023-01-21T05:22:08.411Z,13.98
2023-01-21T05:27:02.058Z,14.05
2023-01-21T05:29:28.925Z,16.67
2023-01-21T05:34:22.576Z,15.73
2023-01-21T05:36:49.418Z,16.42
2023-01-21T05:41:43.032Z,13.32
2023-01-21T05:46:36.845Z,13.80
2023-01-21T05:51:30.503Z,15.38
2023-01-21T05:56:24.098Z,14.90
2023-01-21T05:58:50.960Z,13.00
2023-01-21T06:01:17.817Z,15.25
2023-01-21T06:06:11.393Z,12.88
2023-01-21T06:11:05.067Z,14.38
2023-01-21T06:13:32.009Z,19.02
2023-01-21T06:15:59.004Z,17.50
2023-01-21T06:18:25.995Z,17.50
2023-01-21T06:20:52.874Z,14.63
2023-01-21T06:25:46.455Z,15.85
2023-01-21T06:30:40.177Z,15.85
2023-01-21T06:33:07.048Z,16.17
2023-01-21T06:38:00.683Z,16.65
2023-01-21T06:42:54.634Z,18.08
2023-01-21T06:45:21.693Z,14.45
2023-01-21T06:47:48.547Z,16.55
2023-01-21T06:52:44.502Z,18.30
2023-01-21T06:55:11.670Z,17.35
2023-01-21T06:57:39.728Z,15.23
2023-01-21T07:00:08.677Z,14.90
2023-01-21T07:02:35.835Z,16.30
2023-01-21T07:05:03.666Z,14.05
2023-01-21T07:07:30.501Z,16.90
2023-01-21T07:12:24.085Z,12.80
